Date,TemperatureHighF,TemperatureAvgF,TemperatureLowF,DewpointHighF,DewpointAvgF,DewpointLowF,HumidityHigh,HumidityAvg,HumidityLow,PressureMaxIn,PressureMinIn,WindSpeedMaxMPH,WindSpeedAvgMPH,GustSpeedMaxMPH,PrecipitationSumIn
2013-3-1,42.0,33.2,26.0,32.0,26.4,19.0,88,76,63,30.53,30.44,10,2,16,0.00
2013-3-2,27.0,25.7,25.0,24.0,22.7,22.0,89,89,88,30.52,30.50,0,0,3,0.00
2013-3-4,30.0,27.4,23.0,12.0,9.4,4.0,59,46,37,30.17,30.09,7,4,13,0.08
2013-3-5,29.0,17.9,10.0,23.0,11.7,6.0,87,77,55,30.24,30.02,2,0,4,0.00
2013-3-6,50.0,36.8,25.0,31.0,22.1,18.0,93,60,29,30.03,29.82,8,2,17,0.00
2013-3-7,44.0,34.2,28.0,32.0,28.3,26.0,94,80,52,30.01,29.90,6,1,10,0.05
2013-3-8,38.0,31.7,30.0,32.0,29.2,28.0,95,91,79,29.93,29.81,2,0,4,0.02
2013-3-9,36.0,29.5,20.0,30.0,23.8,17.0,88,80,64,30.22,29.89,6,2,16,0.22
2013-3-10,41.0,28.5,18.0,24.0,18.5,15.0,90,69,39,30.34,30.22,7,2,14,0.04
2013-3-11,37.0,32.2,28.0,28.0,19.0,16.0,72,59,45,30.32,30.22,7,2,15,0.00
2013-3-12,41.0,36.2,34.0,31.0,29.8,28.0,87,78,61,30.34,30.22,7,3,17,0.00
2013-3-14,65.0,52.0,36.0,30.0,26.1,18.0,72,41,17,30.40,30.27,7,2,12,0.00
2013-3-15,58.0,43.5,37.0,30.0,26.4,16.0,71,54,19,30.27,30.09,6,2,15,0.00
2013-3-16,49.0,39.9,33.0,28.0,24.1,17.0,74,55,30,30.11,29.88,9,2,18,0.00
2013-3-17,38.0,31.8,26.0,31.0,22.2,14.0,90,68,50,30.00,29.81,12,5,24,0.01
2013-3-18,39.0,31.0,25.0,21.0,18.0,14.0,80,59,45,30.12,29.99,8,2,20,0.03
2013-3-19,29.0,26.1,22.0,20.0,15.0,11.0,70,63,51,30.18,30.11,2,0,5,0.03
2013-3-21,29.0,23.1,18.0,20.0,15.3,12.0,88,73,55,29.98,29.94,7,2,17,0.04
2013-3-22,22.0,19.2,17.0,18.0,14.5,10.0,90,82,66,29.96,29.85,5,1,16,0.00
2013-3-23,26.0,17.8,11.0,18.0,12.8,7.0,88,80,67,30.14,29.93,5,1,14,0.01
2013-3-24,28.0,17.3,7.0,19.0,11.4,4.0,87,78,57,30.14,30.09,6,1,13,0.06
2013-3-25,39.0,23.6,8.0,26.0,15.6,4.0,87,73,51,30.16,30.06,4,0,10,0.21
2013-3-26,50.0,34.6,26.0,30.0,24.6,22.0,89,69,37,30.15,29.94,4,0,11,0.01
2013-3-27,29.0,28.4,28.0,26.0,25.4,25.0,89,88,87,30.03,30.01,0,0,2,0.01
2013-3-28,57.0,48.3,37.0,32.0,29.6,26.0,74,50,32,30.16,30.08,4,1,12,0.00
2013-3-29,55.0,43.8,34.0,34.0,30.0,27.0,83,62,34,30.27,30.14,11,2,17,0.00